createdAt,value
2019-03-10T00:00:21.068Z,99283.21
2019-03-10T00:03:24.765Z,99299.31
2019-03-10T00:06:26.624Z,99321.39
2019-03-10T00:09:28.621Z,99317.00
2019-03-10T00:12:30.514Z,99306.33
2019-03-10T00:15:32.557Z,99320.80
2019-03-10T00:18:34.463Z,99334.41
2019-03-10T00:21:36.432Z,99338.75
2019-03-10T00:24:38.329Z,99348.50
2019-03-10T00:27:40.261Z,99355.02
2019-03-10T00:30:42.226Z,99379.53
2019-03-10T00:33:44.228Z,99402.66
2019-03-10T00:36:46.132Z,99384.68
2019-03-10T00:40:00.614Z,99406.50
2019-03-10T00:43:23.061Z,99407.28
2019-03-10T00:46:48.422Z,99413.75
2019-03-10T00:50:11.981Z,99416.44
2019-03-10T00:53:14.042Z,99450.19
2019-03-10T00:56:15.922Z,99459.66
2019-03-10T00:59:18.267Z,99460.35
2019-03-10T01:02:20.143Z,99471.25
2019-03-10T01:05:22.082Z,99470.16
2019-03-10T01:08:24.230Z,99496.01
2019-03-10T01:11:26.290Z,99507.72
2019-03-10T01:14:28.141Z,99507.66
2019-03-10T01:17:30.344Z,99515.48
2019-03-10T01:20:32.375Z,99518.66
2019-03-10T01:23:34.318Z,99518.95
2019-03-10T01:26:37.969Z,99533.09
2019-03-10T01:29:39.923Z,99552.69
2019-03-10T01:33:02.339Z,99564.09
2019-03-10T01:36:07.846Z,99549.36
2019-03-10T01:39:10.187Z,99567.16
2019-03-10T01:42:12.377Z,99586.57
2019-03-10T01:45:14.336Z,99581.29
2019-03-10T01:48:16.267Z,99567.27
2019-03-10T01:51:18.228Z,99556.08
2019-03-10T01:54:20.246Z,99560.89
2019-03-10T01:57:22.897Z,99561.91
2019-03-10T02:00:24.807Z,99553.16
2019-03-10T02:03:29.777Z,99556.70
2019-03-10T02:06:31.659Z,99551.49
2019-03-10T02:09:33.561Z,99564.27
2019-03-10T02:12:35.504Z,99546.55
2019-03-10T02:15:37.378Z,99560.69
2019-03-10T02:18:39.272Z,99566.64
2019-03-10T02:21:41.158Z,99563.06
2019-03-10T02:24:42.996Z,99547.52
2019-03-10T02:27:44.963Z,99543.95
2019-03-10T02:30:47.004Z,99552.84
2019-03-10T02:33:48.941Z,99560.41
2019-03-10T02:36:50.889Z,99552.94
2019-03-10T02:39:52.811Z,99550.68
2019-03-10T02:42:54.660Z,99545.70
2019-03-10T02:45:56.559Z,99533.11
2019-03-10T02:48:58.438Z,99521.12
2019-03-10T02:52:00.305Z,99531.17
2019-03-10T02:55:02.826Z,99528.09
2019-03-10T02:58:04.752Z,99524.02
2019-03-10T03:01:06.729Z,99520.72
2019-03-10T03:04:08.698Z,99525.88
2019-03-10T03:07:10.559Z,99529.08
2019-03-10T03:10:13.091Z,99521.13
2019-03-10T03:13:15.018Z,99519.48
2019-03-10T03:16:16.906Z,99522.70
2019-03-10T03:19:18.820Z,99522.61
2019-03-10T03:22:20.741Z,99542.42
2019-03-10T03:25:22.644Z,99539.35
2019-03-10T03:28:24.515Z,99546.54
2019-03-10T03:31:26.427Z,99557.94
2019-03-10T03:34:28.341Z,99550.28
2019-03-10T03:37:30.252Z,99551.41
2019-03-10T03:40:32.217Z,99545.54
2019-03-10T03:43:34.082Z,99559.93
2019-03-10T03:46:35.975Z,99565.20
2019-03-10T03:49:37.859Z,99564.15
2019-03-10T03:52:39.856Z,99565.20
2019-03-10T03:55:41.915Z,99569.09
2019-03-10T03:58:43.885Z,99567.96
2019-03-10T04:01:50.549Z,99560.89
2019-03-10T04:04:52.508Z,99561.98
2019-03-10T04:07:54.489Z,99570.45
2019-03-10T04:10:56.380Z,99562.20
2019-03-10T04:13:58.465Z,99555.11
2019-03-10T04:17:00.379Z,99552.61
2019-03-10T04:20:04.525Z,99540.24
2019-03-10T04:23:06.484Z,99538.56
2019-03-10T04:26:08.498Z,99533.63
2019-03-10T04:29:10.432Z,99531.77
2019-03-10T04:32:12.314Z,99525.20
2019-03-10T04:35:14.232Z,99518.97
2019-03-10T04:38:16.065Z,99514.94
2019-03-10T04:41:18.030Z,99513.40
2019-03-10T04:44:19.861Z,99512.91
2019-03-10T04:47:22.500Z,99502.09
2019-03-10T04:50:24.414Z,99501.24
2019-03-10T04:53:26.411Z,99500.52
2019-03-10T04:56:33.226Z,99496.98
2019-03-10T04:59:35.707Z,99501.10
2019-03-10T05:02:37.682Z,99502.73
2019-03-10T05:05:40.853Z,99497.08
2019-03-10T05:08:42.782Z,99495.98
2019-03-10T05:11:44.715Z,99490.73
2019-03-10T05:14:46.577Z,99504.54
2019-03-10T05:17:48.544Z,99499.78
2019-03-10T05:20:50.370Z,99500.20
2019-03-10T05:23:53.134Z,99508.48
2019-03-10T05:26:55.035Z,99501.03
2019-03-10T05:29:56.963Z,99492.28
2019-03-10T05:32:58.862Z,99504.70
2019-03-10T05:36:00.793Z,99502.07
2019-03-10T05:39:04.452Z,99498.73
2019-03-10T05:42:07.422Z,99507.70
2019-03-10T05:45:09.489Z,99510.41
2019-03-10T05:48:12.920Z,99506.41
2019-03-10T05:51:14.875Z,99505.37
2019-03-10T05:54:16.748Z,99499.45
2019-03-10T05:57:18.771Z,99494.16
2019-03-10T06:00:20.808Z,99501.96
2019-03-10T06:03:22.871Z,99500.27
2019-03-10T06:06:24.718Z,99499.92
2019-03-10T06:09:27.759Z,99500.72
2019-03-10T06:12:29.619Z,99505.58
2019-03-10T06:15:31.565Z,99502.65
2019-03-10T06:18:33.477Z,99503.71
2019-03-10T06:21:35.464Z,99497.99
2019-03-10T06:24:37.340Z,99497.99
2019-03-10T06:27:39.250Z,99483.00
2019-03-10T06:30:41.139Z,99484.64
2019-03-10T06:33:43.220Z,99484.68
2019-03-10T06:36:45.137Z,99477.34
2019-03-10T06:39:47.125Z,99477.34
2019-03-10T06:42:49.005Z,99488.50
2019-03-10T06:45:50.956Z,99492.08
2019-03-10T06:48:52.937Z,99491.62
2019-03-10T06:51:54.913Z,99484.64
2019-03-10T06:54:56.818Z,99489.59
2019-03-10T06:57:58.796Z,99480.90
2019-03-10T07:01:00.691Z,99470.82
2019-03-10T07:04:02.792Z,99469.47
2019-03-10T07:07:04.652Z,99467.31
2019-03-10T07:10:09.563Z,99473.86
2019-03-10T07:13:11.531Z,99471.08
2019-03-10T07:16:13.391Z,99460.61
2019-03-10T07:19:15.225Z,99452.61
2019-03-10T07:22:17.076Z,99454.72
2019-03-10T07:25:18.989Z,99447.13
2019-03-10T07:28:22.658Z,99444.98
2019-03-10T07:31:32.620Z,99444.47
2019-03-10T07:34:42.319Z,99437.41
2019-03-10T07:37:58.178Z,99444.16
2019-03-10T07:41:10.896Z,99441.39
2019-03-10T07:44:14.598Z,99442.17
2019-03-10T07:47:18.246Z,99437.87
2019-03-10T07:50:38.535Z,99427.69
2019-03-10T07:53:45.257Z,99423.03
2019-03-10T07:56:51.791Z,99407.05
2019-03-10T08:00:12.213Z,99411.65
2019-03-10T08:03:22.178Z,99404.50
2019-03-10T08:06:25.985Z,99399.68
2019-03-10T08:09:35.426Z,99397.63
2019-03-10T08:12:39.124Z,99395.83
2019-03-10T08:15:48.814Z,99405.42
2019-03-10T08:19:07.975Z,99399.78
2019-03-10T08:22:18.012Z,99393.73
2019-03-10T08:25:24.738Z,99387.39
2019-03-10T08:28:28.455Z,99384.40
2019-03-10T08:31:50.582Z,99379.80
2019-03-10T08:34:54.307Z,99372.26
2019-03-10T08:38:10.126Z,99368.64
2019-03-10T08:41:16.422Z,99360.08
2019-03-10T08:44:20.086Z,99356.70
2019-03-10T08:47:42.279Z,99347.67
2019-03-10T08:50:48.754Z,99343.06
2019-03-10T08:53:58.154Z,99336.23
2019-03-10T08:57:01.871Z,99326.44
2019-03-10T09:00:18.179Z,99321.41
2019-03-10T09:03:24.761Z,99313.72
2019-03-10T09:06:28.518Z,99312.95
2019-03-10T09:09:32.264Z,99299.54
2019-03-10T09:12:35.996Z,99296.22
2019-03-10T09:15:45.859Z,99298.98
2019-03-10T09:18:49.641Z,99288.45
2019-03-10T09:22:11.776Z,99274.14
2019-03-10T09:25:32.111Z,99275.55
2019-03-10T09:28:35.763Z,99263.67
2019-03-10T09:31:42.298Z,99253.92
2019-03-10T09:34:45.983Z,99258.08
2019-03-10T09:37:52.837Z,99253.95
2019-03-10T09:41:02.602Z,99255.45
2019-03-10T09:44:06.297Z,99259.23
2019-03-10T09:47:22.323Z,99262.86
2019-03-10T09:50:26.046Z,99264.13
2019-03-10T09:53:46.431Z,99260.61
2019-03-10T09:57:06.736Z,99245.87
2019-03-10T10:00:29.037Z,99248.15
2019-03-10T10:03:35.193Z,99244.95
2019-03-10T10:06:54.302Z,99238.55
2019-03-10T10:10:03.810Z,99238.66
2019-03-10T10:13:16.675Z,99221.84
2019-03-10T10:16:23.383Z,99219.20
2019-03-10T10:19:27.054Z,99214.20
2019-03-10T10:22:36.690Z,99214.69
2019-03-10T10:25:40.771Z,99202.92
2019-03-10T10:29:01.984Z,99220.22
2019-03-10T10:32:18.737Z,99209.59
2019-03-10T10:35:34.270Z,99213.59
2019-03-10T10:38:50.180Z,99207.81
2019-03-10T10:41:53.980Z,99187.89
2019-03-10T10:45:14.194Z,99192.42
2019-03-10T10:48:17.920Z,99174.43
2019-03-10T10:51:25.544Z,99169.73
2019-03-10T10:54:40.917Z,99161.41
2019-03-10T10:57:50.922Z,99145.20
2019-03-10T11:01:00.687Z,99130.63
2019-03-10T11:04:10.000Z,99130.16
2019-03-10T11:07:13.671Z,99114.52
2019-03-10T11:10:23.007Z,99112.67
2019-03-10T11:13:26.757Z,99109.45
2019-03-10T11:16:47.546Z,99089.82
2019-03-10T11:19:51.236Z,99083.91
2019-03-10T11:22:58.068Z,99077.32
2019-03-10T11:26:02.842Z,99085.55
2019-03-10T11:29:09.418Z,99075.33
2019-03-10T11:32:13.116Z,99066.30
2019-03-10T11:35:31.897Z,99063.86
2019-03-10T11:38:38.247Z,99061.56
2019-03-10T11:41:58.595Z,99057.05
2019-03-10T11:45:19.123Z,99054.88
2019-03-10T11:48:34.677Z,99048.25
2019-03-10T11:51:55.409Z,99040.09
2019-03-10T11:55:15.542Z,99037.36
2019-03-10T11:58:19.308Z,99031.64
2019-03-10T12:01:41.151Z,99026.77
2019-03-10T12:05:00.385Z,99026.67
2019-03-10T12:08:13.301Z,99021.67
2019-03-10T12:11:16.182Z,99017.94
2019-03-10T12:14:18.153Z,99004.97
2019-03-10T12:17:20.109Z,98997.19
2019-03-10T12:20:22.067Z,98997.96
2019-03-10T12:23:24.063Z,98981.58
2019-03-10T12:26:27.099Z,98978.52
2019-03-10T12:29:29.082Z,98969.19
2019-03-10T12:32:31.255Z,98958.50
2019-03-10T12:35:34.697Z,98948.45
2019-03-10T12:38:36.907Z,98945.95
2019-03-10T12:41:38.874Z,98942.80
2019-03-10T12:44:40.791Z,98930.83
2019-03-10T12:47:43.224Z,98932.88
2019-03-10T12:50:45.213Z,98916.34
2019-03-10T12:53:47.147Z,98922.09
2019-03-10T12:56:49.038Z,98903.23
2019-03-10T12:59:51.240Z,98889.53
2019-03-10T13:02:53.265Z,98880.27
2019-03-10T13:05:55.166Z,98868.34
2019-03-10T13:08:57.127Z,98862.88
2019-03-10T13:11:58.995Z,98847.53
2019-03-10T13:15:01.425Z,98834.58
2019-03-10T13:18:03.517Z,98818.49
2019-03-10T13:21:05.576Z,98808.23
2019-03-10T13:24:07.465Z,98802.39
2019-03-10T13:27:09.545Z,98804.50
2019-03-10T13:30:14.569Z,98799.78
2019-03-10T13:33:16.548Z,98796.44
2019-03-10T13:36:19.803Z,98786.32
2019-03-10T13:39:22.323Z,98781.20
2019-03-10T13:42:24.245Z,98776.89
2019-03-10T13:45:26.208Z,98760.04
2019-03-10T13:48:28.117Z,98753.75
2019-03-10T13:51:30.157Z,98746.34
2019-03-10T13:54:32.103Z,98730.90
2019-03-10T13:57:34.100Z,98722.86
2019-03-10T14:00:36.065Z,98710.62
2019-03-10T14:03:39.487Z,98702.64
2019-03-10T14:06:41.374Z,98679.12
2019-03-10T14:09:43.294Z,98673.11
2019-03-10T14:12:47.821Z,98661.53
2019-03-10T14:15:51.760Z,98634.21
2019-03-10T14:18:53.639Z,98629.34
2019-03-10T14:21:55.752Z,98616.25
2019-03-10T14:24:57.657Z,98631.66
2019-03-10T14:27:59.640Z,98636.90
2019-03-10T14:31:01.542Z,98615.58
2019-03-10T14:34:05.034Z,98608.48
2019-03-10T14:37:06.933Z,98617.29
2019-03-10T14:40:15.072Z,98602.52
2019-03-10T14:43:18.791Z,98578.48
2019-03-10T14:46:20.742Z,98558.92
2019-03-10T14:49:23.730Z,98547.53
2019-03-10T14:52:30.209Z,98537.06
2019-03-10T14:55:32.106Z,98520.79
2019-03-10T14:58:34.304Z,98515.81
2019-03-10T15:01:38.457Z,98484.84
2019-03-10T15:04:40.566Z,98441.00
2019-03-10T15:07:42.488Z,98446.50
2019-03-10T15:10:46.944Z,98447.34
2019-03-10T15:13:49.223Z,98435.81
2019-03-10T15:16:51.248Z,98435.73
2019-03-10T15:19:53.223Z,98416.12
2019-03-10T15:22:57.165Z,98384.02
2019-03-10T15:26:01.848Z,98371.16
2019-03-10T15:29:04.313Z,98353.14
2019-03-10T15:32:08.476Z,98360.46
2019-03-10T15:35:10.470Z,98367.63
2019-03-10T15:38:13.201Z,98366.81
2019-03-10T15:41:17.415Z,98367.58
2019-03-10T15:44:19.316Z,98344.05
2019-03-10T15:47:21.220Z,98332.16
2019-03-10T15:50:28.623Z,98329.47
2019-03-10T15:53:32.860Z,98322.63
2019-03-10T15:56:35.938Z,98327.53
2019-03-10T15:59:37.962Z,98327.61
2019-03-10T16:02:40.548Z,98327.34
2019-03-10T16:05:44.680Z,98322.14
2019-03-10T16:08:47.158Z,98321.88
2019-03-10T16:11:49.501Z,98332.47
2019-03-10T16:14:53.362Z,98334.48
2019-03-10T16:17:55.275Z,98328.93
2019-03-10T16:20:59.066Z,98332.18
2019-03-10T16:24:01.196Z,98326.80
2019-03-10T16:27:03.952Z,98316.72
2019-03-10T16:30:16.821Z,98301.41
2019-03-10T16:33:20.234Z,98312.42
2019-03-10T16:36:22.192Z,98304.95
2019-03-10T16:39:26.023Z,98296.75
2019-03-10T16:42:29.443Z,98302.28
2019-03-10T16:45:31.417Z,98297.20
2019-03-10T16:48:34.800Z,98292.58
2019-03-10T16:51:36.794Z,98290.52
2019-03-10T16:54:40.143Z,98297.78
2019-03-10T16:57:43.998Z,98298.02
2019-03-10T17:00:48.645Z,98290.78
2019-03-10T17:03:50.709Z,98289.36
2019-03-10T17:06:54.663Z,98288.19
2019-03-10T17:09:56.961Z,98279.15
2019-03-10T17:13:02.126Z,98282.49
2019-03-10T17:16:05.764Z,98283.86
2019-03-10T17:19:10.383Z,98282.02
2019-03-10T17:22:12.451Z,98286.55
2019-03-10T17:25:16.909Z,98282.09
2019-03-10T17:28:18.880Z,98268.31
2019-03-10T17:31:20.959Z,98265.78
2019-03-10T17:34:25.092Z,98266.65
2019-03-10T17:37:27.153Z,98269.95
2019-03-10T17:40:29.482Z,98268.58
2019-03-10T17:43:34.005Z,98269.44
2019-03-10T17:46:36.395Z,98277.54
2019-03-10T17:49:38.448Z,98268.70
2019-03-10T17:52:40.513Z,98267.09
2019-03-10T17:55:45.842Z,98273.16
2019-03-10T17:58:48.257Z,98277.95
2019-03-10T18:01:52.089Z,98273.78
2019-03-10T18:04:54.077Z,98262.47
2019-03-10T18:07:56.174Z,98275.59
2019-03-10T18:10:58.168Z,98248.15
2019-03-10T18:14:02.075Z,98250.20
2019-03-10T18:17:07.191Z,98240.67
2019-03-10T18:20:17.364Z,98230.11
2019-03-10T18:23:21.063Z,98230.47
2019-03-10T18:26:23.467Z,98257.18
2019-03-10T18:29:27.744Z,98259.17
2019-03-10T18:32:29.929Z,98261.34
2019-03-10T18:35:31.844Z,98283.02
2019-03-10T18:38:35.355Z,98289.74
2019-03-10T18:41:37.346Z,98288.55
2019-03-10T18:44:41.946Z,98287.98
2019-03-10T18:47:43.965Z,98284.00
2019-03-10T18:50:48.040Z,98276.53
2019-03-10T18:53:52.870Z,98279.33
2019-03-10T18:56:57.183Z,98277.48
2019-03-10T19:00:01.288Z,98274.17
2019-03-10T19:03:03.457Z,98276.05
2019-03-10T19:06:05.995Z,98282.27
2019-03-10T19:09:11.951Z,98282.51
2019-03-10T19:12:16.292Z,98288.43
2019-03-10T19:15:25.413Z,98282.89
2019-03-10T19:18:31.729Z,98309.15
2019-03-10T19:21:36.071Z,98310.02
2019-03-10T19:24:42.184Z,98279.20
2019-03-10T19:27:45.919Z,98284.50
2019-03-10T19:30:49.446Z,98285.69
2019-03-10T19:33:51.431Z,98273.09
2019-03-10T19:36:57.336Z,98281.02
2019-03-10T19:40:00.247Z,98278.78
2019-03-10T19:43:02.161Z,98281.76
2019-03-10T19:46:06.978Z,98291.23
2019-03-10T19:49:08.874Z,98280.39
2019-03-10T19:52:12.371Z,98290.55
2019-03-10T19:55:14.709Z,98287.87
2019-03-10T19:58:16.723Z,98283.02
2019-03-10T20:01:20.183Z,98271.44
2019-03-10T20:04:23.935Z,98262.21
2019-03-10T20:07:28.163Z,98266.70
2019-03-10T20:10:31.327Z,98257.91
2019-03-10T20:13:34.635Z,98231.94
2019-03-10T20:16:41.217Z,98262.20
2019-03-10T20:19:48.705Z,98271.43
2019-03-10T20:22:56.721Z,98268.31
2019-03-10T20:26:00.159Z,98266.26
2019-03-10T20:29:02.219Z,98257.06
2019-03-10T20:32:13.495Z,98257.36
2019-03-10T20:35:08.591Z,98257.28
2019-03-10T20:38:11.639Z,98258.72
2019-03-10T20:41:15.134Z,98276.67
2019-03-10T20:44:17.556Z,98290.95
2019-03-10T20:47:19.510Z,98276.67
2019-03-10T20:50:21.497Z,98289.98
2019-03-10T20:53:23.431Z,98293.97
2019-03-10T20:56:25.870Z,98300.75
2019-03-10T20:59:28.700Z,98289.23
2019-03-10T21:02:30.663Z,98284.36
2019-03-10T21:05:32.648Z,98310.84
2019-03-10T21:08:34.849Z,98300.95
2019-03-10T21:11:38.517Z,98286.45
2019-03-10T21:14:40.388Z,98289.19
2019-03-10T21:17:43.113Z,98294.73
2019-03-10T21:20:45.547Z,98289.78
2019-03-10T21:23:47.507Z,98296.77
2019-03-10T21:26:50.434Z,98290.48
2019-03-10T21:29:53.539Z,98297.39
2019-03-10T21:32:55.513Z,98291.23
2019-03-10T21:35:58.748Z,98294.59
2019-03-10T21:39:00.582Z,98289.10
2019-03-10T21:42:04.312Z,98289.71
2019-03-10T21:45:08.476Z,98286.34
2019-03-10T21:48:10.414Z,98276.36
2019-03-10T21:51:12.364Z,98281.20
2019-03-10T21:54:14.364Z,98283.31
2019-03-10T21:57:16.306Z,98281.95
2019-03-10T22:00:19.393Z,98294.04
2019-03-10T22:03:21.331Z,98282.58
2019-03-10T22:06:23.331Z,98275.86
2019-03-10T22:09:26.523Z,98284.34
2019-03-10T22:12:28.573Z,98286.19
2019-03-10T22:15:40.712Z,98271.84
2019-03-10T22:18:34.439Z,98288.56
2019-03-10T22:21:36.416Z,98263.39
2019-03-10T22:24:38.555Z,98268.88
2019-03-10T22:27:40.479Z,98291.43
2019-03-10T22:30:42.421Z,98284.81
2019-03-10T22:33:44.349Z,98294.17
2019-03-10T22:36:46.253Z,98297.78
2019-03-10T22:39:48.186Z,98295.60
2019-03-10T22:42:51.321Z,98309.87
2019-03-10T22:45:53.271Z,98313.00
2019-03-10T22:48:55.179Z,98320.21
2019-03-10T22:51:57.227Z,98327.45
2019-03-10T22:54:59.195Z,98319.36
2019-03-10T22:58:01.106Z,98318.11
2019-03-10T23:01:03.374Z,98333.80
2019-03-10T23:04:05.870Z,98271.73
2019-03-10T23:07:07.779Z,98315.23
2019-03-10T23:10:12.574Z,98319.45
2019-03-10T23:13:14.630Z,98298.29
2019-03-10T23:16:18.388Z,98339.66
2019-03-10T23:19:20.407Z,98351.22
2019-03-10T23:22:22.353Z,98355.39
2019-03-10T23:25:24.278Z,98396.46
2019-03-10T23:28:26.161Z,98418.88
2019-03-10T23:31:28.223Z,98387.02
2019-03-10T23:34:30.155Z,98429.25
2019-03-10T23:37:32.068Z,98453.40
2019-03-10T23:40:34.017Z,98474.12
2019-03-10T23:43:35.939Z,98491.28
2019-03-10T23:46:38.235Z,98509.72
2019-03-10T23:49:40.144Z,98505.19
2019-03-10T23:52:42.080Z,98535.87
2019-03-10T23:55:43.933Z,98556.42
2019-03-10T23:58:45.862Z,98641.19
